createdAt,value
2018-08-12T00:00:36.366Z,52.20
2018-08-12T00:02:43.273Z,52.10
2018-08-12T00:04:54.318Z,52.10
2018-08-12T00:06:58.863Z,52.20
2018-08-12T00:09:03.463Z,52.30
2018-08-12T00:11:07.999Z,52.30
2018-08-12T00:13:12.529Z,52.40
2018-08-12T00:15:19.537Z,52.50
2018-08-12T00:17:23.998Z,52.50
2018-08-12T00:19:28.509Z,52.50
2018-08-12T00:21:33.167Z,52.50
2018-08-12T00:23:37.669Z,52.50
2018-08-12T00:25:42.186Z,52.50
2018-08-12T00:27:46.693Z,52.50
2018-08-12T00:29:51.492Z,52.50
2018-08-12T00:31:55.918Z,52.50
2018-08-12T00:34:00.496Z,52.50
2018-08-12T00:36:05.063Z,52.70
2018-08-12T00:38:09.570Z,52.80
2018-08-12T00:40:16.154Z,52.90
2018-08-12T00:42:20.633Z,52.90
2018-08-12T00:44:25.141Z,53.00
2018-08-12T00:46:29.635Z,53.20
2018-08-12T00:48:34.085Z,53.20
2018-08-12T00:50:38.553Z,53.30
2018-08-12T00:52:43.394Z,53.30
2018-08-12T00:54:47.945Z,53.30
2018-08-12T00:56:52.411Z,53.30
2018-08-12T00:58:57.151Z,53.30
2018-08-12T01:01:04.420Z,53.40
2018-08-12T01:03:11.640Z,53.60
2018-08-12T01:05:21.320Z,53.60
2018-08-12T01:07:28.114Z,54.00
2018-08-12T01:09:35.081Z,53.80
2018-08-12T01:11:42.247Z,53.90
2018-08-12T01:13:49.858Z,53.90
2018-08-12T01:15:57.359Z,54.00
2018-08-12T01:18:04.589Z,54.10
2018-08-12T01:20:13.827Z,54.10
2018-08-12T01:22:22.190Z,54.20
2018-08-12T01:24:29.334Z,54.40
2018-08-12T01:26:36.201Z,54.50
2018-08-12T01:28:42.146Z,54.60
2018-08-12T01:30:47.623Z,54.60
2018-08-12T01:32:55.024Z,54.60
2018-08-12T01:35:02.527Z,54.70
2018-08-12T01:37:10.530Z,54.70
2018-08-12T01:39:17.260Z,54.70
2018-08-12T01:41:25.212Z,54.90
2018-08-12T01:43:32.567Z,54.90
2018-08-12T01:45:40.946Z,54.90
2018-08-12T01:47:47.340Z,54.90
2018-08-12T01:49:52.955Z,54.90
2018-08-12T01:52:00.656Z,54.90
2018-08-12T01:54:07.631Z,55.10
2018-08-12T01:56:14.715Z,55.10
2018-08-12T01:58:22.446Z,55.00
2018-08-12T02:00:32.288Z,55.10
2018-08-12T02:02:36.966Z,55.10
2018-08-12T02:04:44.330Z,55.00
2018-08-12T02:06:52.649Z,55.00
2018-08-12T02:08:59.802Z,55.00
2018-08-12T02:11:09.699Z,55.00
2018-08-12T02:13:17.530Z,55.00
2018-08-12T02:15:24.770Z,55.10
2018-08-12T02:17:30.512Z,55.60
2018-08-12T02:19:37.843Z,55.00
2018-08-12T02:21:42.719Z,55.10
2018-08-12T02:23:47.190Z,55.20
2018-08-12T02:25:51.614Z,55.10
2018-08-12T02:27:56.075Z,55.20
2018-08-12T02:30:00.618Z,55.30
2018-08-12T02:32:05.202Z,55.50
2018-08-12T02:34:09.707Z,55.30
2018-08-12T02:36:14.163Z,55.30
2018-08-12T02:38:18.599Z,55.40
2018-08-12T02:40:23.082Z,55.50
2018-08-12T02:42:27.722Z,55.50
2018-08-12T02:44:32.179Z,55.60
2018-08-12T02:46:36.659Z,55.60
2018-08-12T02:48:41.139Z,55.70
2018-08-12T02:50:45.615Z,55.70
2018-08-12T02:52:50.103Z,55.60
2018-08-12T02:54:54.651Z,55.70
2018-08-12T02:56:59.133Z,55.80
2018-08-12T02:59:03.602Z,55.60
2018-08-12T03:01:08.116Z,55.70
2018-08-12T03:03:12.651Z,55.80
2018-08-12T03:05:17.142Z,55.80
2018-08-12T03:07:21.745Z,56.00
2018-08-12T03:09:26.248Z,56.10
2018-08-12T03:11:30.806Z,56.00
2018-08-12T03:13:35.242Z,56.00
2018-08-12T03:15:39.765Z,56.00
2018-08-12T03:17:44.234Z,56.20
2018-08-12T03:19:48.703Z,56.10
2018-08-12T03:21:53.178Z,56.10
2018-08-12T03:23:57.636Z,56.10
2018-08-12T03:26:02.267Z,56.10
2018-08-12T03:28:06.798Z,56.10
2018-08-12T03:30:12.284Z,56.20
2018-08-12T03:32:16.541Z,56.20
2018-08-12T03:34:20.998Z,56.20
2018-08-12T03:36:25.517Z,56.20
2018-08-12T03:38:30.057Z,56.30
2018-08-12T03:40:34.596Z,56.40
2018-08-12T03:42:39.073Z,56.40
2018-08-12T03:44:43.538Z,56.30
2018-08-12T03:46:48.062Z,56.40
2018-08-12T03:48:52.602Z,56.50
2018-08-12T03:50:57.094Z,56.50
2018-08-12T03:53:01.619Z,56.30
2018-08-12T03:55:07.049Z,56.40
2018-08-12T03:57:11.521Z,56.50
2018-08-12T03:59:15.979Z,56.60
2018-08-12T04:01:21.703Z,56.70
2018-08-12T04:03:28.821Z,56.80
2018-08-12T04:05:34.818Z,56.80
2018-08-12T04:07:42.200Z,56.90
2018-08-12T04:09:49.315Z,56.90
2018-08-12T04:11:56.421Z,56.90
2018-08-12T04:14:01.030Z,56.80
2018-08-12T04:16:05.586Z,56.90
2018-08-12T04:18:10.039Z,56.90
2018-08-12T04:20:14.521Z,57.00
2018-08-12T04:22:19.027Z,57.10
2018-08-12T04:24:23.778Z,57.00
2018-08-12T04:26:28.269Z,57.20
2018-08-12T04:28:32.705Z,57.30
2018-08-12T04:30:37.179Z,57.50
2018-08-12T04:32:41.674Z,57.50
2018-08-12T04:34:46.094Z,57.50
2018-08-12T04:36:51.948Z,57.50
2018-08-12T04:38:56.439Z,57.50
2018-08-12T04:41:00.920Z,57.40
2018-08-12T04:43:05.475Z,57.40
2018-08-12T04:45:10.884Z,57.50
2018-08-12T04:47:15.347Z,57.60
2018-08-12T04:49:21.066Z,57.60
2018-08-12T04:51:25.516Z,58.40
2018-08-12T04:53:30.131Z,57.80
2018-08-12T04:55:34.622Z,57.90
2018-08-12T04:57:39.282Z,57.90
2018-08-12T04:59:43.710Z,58.00
2018-08-12T05:01:48.186Z,58.00
2018-08-12T05:03:52.767Z,58.60
2018-08-12T05:05:59.505Z,58.20
2018-08-12T05:08:04.094Z,58.30
2018-08-12T05:10:08.980Z,58.30
2018-08-12T05:12:13.463Z,58.50
2018-08-12T05:14:17.910Z,58.70
2018-08-12T05:16:22.406Z,58.80
2018-08-12T05:18:26.815Z,58.90
2018-08-12T05:20:31.299Z,59.00
2018-08-12T05:22:35.822Z,59.40
2018-08-12T05:24:40.292Z,59.40
2018-08-12T05:26:44.752Z,59.50
2018-08-12T05:28:49.181Z,59.50
2018-08-12T05:30:53.670Z,59.50
2018-08-12T05:32:58.162Z,59.70
2018-08-12T05:35:02.625Z,59.90
2018-08-12T05:37:07.242Z,59.90
2018-08-12T05:39:13.447Z,60.80
2018-08-12T05:41:18.262Z,59.90
2018-08-12T05:43:22.850Z,60.40
2018-08-12T05:45:27.370Z,60.40
2018-08-12T05:47:31.847Z,60.60
2018-08-12T05:49:36.329Z,61.50
2018-08-12T05:51:40.863Z,61.10
2018-08-12T05:53:45.305Z,61.20
2018-08-12T05:55:49.754Z,62.10
2018-08-12T05:57:54.233Z,61.40
2018-08-12T05:59:58.834Z,61.70
2018-08-12T06:02:03.386Z,61.50
2018-08-12T06:04:07.887Z,61.90
2018-08-12T06:06:12.415Z,61.80
2018-08-12T06:08:16.902Z,61.70
2018-08-12T06:10:21.435Z,61.80
2018-08-12T06:12:26.515Z,61.90
2018-08-12T06:14:30.954Z,61.80
2018-08-12T06:16:35.402Z,61.70
2018-08-12T06:18:39.956Z,61.70
2018-08-12T06:20:44.430Z,61.90
2018-08-12T06:22:49.021Z,61.90
2018-08-12T06:24:53.478Z,62.10
2018-08-12T06:26:57.974Z,62.10
2018-08-12T06:29:02.985Z,62.00
2018-08-12T06:31:07.679Z,62.00
2018-08-12T06:33:12.146Z,62.20
2018-08-12T06:35:16.618Z,62.10
2018-08-12T06:37:21.138Z,62.20
2018-08-12T06:39:25.602Z,62.20
2018-08-12T06:41:30.191Z,62.20
2018-08-12T06:43:34.688Z,62.10
2018-08-12T06:45:39.176Z,62.20
2018-08-12T06:47:44.903Z,62.20
2018-08-12T06:49:49.355Z,62.30
2018-08-12T06:51:53.901Z,62.40
2018-08-12T06:53:58.351Z,62.40
2018-08-12T06:56:02.896Z,62.70
2018-08-12T06:58:07.435Z,61.70
2018-08-12T07:00:17.794Z,61.60
2018-08-12T07:02:22.279Z,61.50
2018-08-12T07:04:27.348Z,61.20
2018-08-12T07:06:31.897Z,61.90
2018-08-12T07:08:37.427Z,61.10
2018-08-12T07:10:44.096Z,61.30
2018-08-12T07:12:48.684Z,61.30
2018-08-12T07:14:53.128Z,61.20
2018-08-12T07:16:57.682Z,61.40
2018-08-12T07:19:02.282Z,60.90
2018-08-12T07:21:06.801Z,60.60
2018-08-12T07:23:11.322Z,60.80
2018-08-12T07:25:16.015Z,61.00
2018-08-12T07:27:20.514Z,61.10
2018-08-12T07:29:24.965Z,61.20
2018-08-12T07:31:29.466Z,61.30
2018-08-12T07:33:34.290Z,61.40
2018-08-12T07:35:38.871Z,60.60
2018-08-12T07:37:43.714Z,60.00
2018-08-12T07:39:48.518Z,59.90
2018-08-12T07:41:53.058Z,59.80
2018-08-12T07:43:57.746Z,59.30
2018-08-12T07:46:02.421Z,59.70
2018-08-12T07:48:07.458Z,60.30
2018-08-12T07:50:12.110Z,60.50
2018-08-12T07:52:16.647Z,59.80
2018-08-12T07:54:21.118Z,59.50
2018-08-12T07:56:25.671Z,58.10
2018-08-12T07:58:30.195Z,57.20
2018-08-12T08:00:34.842Z,56.50
2018-08-12T08:02:39.343Z,56.70
2018-08-12T08:04:43.838Z,55.80
2018-08-12T08:06:48.367Z,55.00
2018-08-12T08:08:52.900Z,54.30
2018-08-12T08:10:57.963Z,53.20
2018-08-12T08:13:02.523Z,52.20
2018-08-12T08:15:09.716Z,51.70
2018-08-12T08:17:14.199Z,51.10
2018-08-12T08:19:20.062Z,50.10
2018-08-12T08:21:33.467Z,49.60
2018-08-12T08:23:39.615Z,49.20
2018-08-12T08:25:46.377Z,48.60
2018-08-12T08:27:52.691Z,48.30
2018-08-12T08:30:00.311Z,48.10
2018-08-12T08:32:06.646Z,47.50
2018-08-12T08:34:11.199Z,47.00
2018-08-12T08:36:15.686Z,46.70
2018-08-12T08:38:20.237Z,46.10
2018-08-12T08:40:24.794Z,45.70
2018-08-12T08:42:29.251Z,44.80
2018-08-12T08:44:33.772Z,44.50
2018-08-12T08:46:38.366Z,44.10
2018-08-12T08:48:42.930Z,44.30
2018-08-12T08:50:47.473Z,43.60
2018-08-12T08:52:52.366Z,42.70
2018-08-12T08:54:56.883Z,42.30
2018-08-12T08:57:02.327Z,42.00
2018-08-12T08:59:07.109Z,41.60
2018-08-12T09:01:11.659Z,41.10
2018-08-12T09:03:16.158Z,40.60
2018-08-12T09:05:21.102Z,40.50
2018-08-12T09:07:25.593Z,40.20
2018-08-12T09:09:30.106Z,39.50
2018-08-12T09:11:34.540Z,39.40
2018-08-12T09:13:39.133Z,39.40
2018-08-12T09:17:59.270Z,39.40
2018-08-12T09:20:04.807Z,38.40
2018-08-12T09:22:09.414Z,38.30
2018-08-12T09:24:14.943Z,37.90
2018-08-12T09:26:19.494Z,37.50
2018-08-12T09:28:24.452Z,37.30
2018-08-12T09:30:28.927Z,37.10
2018-08-12T09:32:33.591Z,37.40
2018-08-12T09:34:39.047Z,36.90
2018-08-12T09:36:43.598Z,36.60
2018-08-12T09:38:48.126Z,36.40
2018-08-12T09:40:52.661Z,36.40
2018-08-12T09:42:57.221Z,36.40
2018-08-12T09:45:01.772Z,36.10
2018-08-12T09:47:06.567Z,35.80
2018-08-12T09:49:11.060Z,35.50
2018-08-12T09:51:15.519Z,35.50
2018-08-12T09:53:20.150Z,35.30
2018-08-12T09:55:24.680Z,35.10
2018-08-12T09:57:29.150Z,34.80
2018-08-12T09:59:33.679Z,34.80
2018-08-12T10:01:38.166Z,34.30
2018-08-12T10:03:42.737Z,34.40
2018-08-12T10:05:47.370Z,34.50
2018-08-12T10:07:51.874Z,34.50
2018-08-12T10:09:56.390Z,34.30
2018-08-12T10:12:00.991Z,34.30
2018-08-12T10:14:05.654Z,34.70
2018-08-12T10:16:10.203Z,33.80
2018-08-12T10:18:14.799Z,33.90
2018-08-12T10:20:19.453Z,33.60
2018-08-12T10:22:24.042Z,33.40
2018-08-12T10:24:28.567Z,32.80
2018-08-12T10:26:33.076Z,32.80
2018-08-12T10:28:37.523Z,32.90
2018-08-12T10:30:41.982Z,32.70
2018-08-12T10:32:49.386Z,33.00
2018-08-12T10:34:54.989Z,32.80
2018-08-12T10:36:59.438Z,32.70
2018-08-12T10:39:05.310Z,32.10
2018-08-12T10:41:09.758Z,32.30
2018-08-12T10:43:14.223Z,32.20
2018-08-12T10:45:20.840Z,32.30
2018-08-12T10:47:25.339Z,32.40
2018-08-12T10:49:29.876Z,32.40
2018-08-12T10:51:34.375Z,32.30
2018-08-12T10:53:39.007Z,31.70
2018-08-12T10:55:43.542Z,31.20
2018-08-12T10:57:48.122Z,30.80
2018-08-12T10:59:52.722Z,30.90
2018-08-12T11:01:57.250Z,30.50
2018-08-12T11:04:01.835Z,30.40
2018-08-12T11:06:06.524Z,30.50
2018-08-12T11:08:11.622Z,31.10
2018-08-12T11:10:16.254Z,30.50
2018-08-12T11:12:20.828Z,30.10
2018-08-12T11:14:25.362Z,30.10
2018-08-12T11:16:29.832Z,30.10
2018-08-12T11:18:34.282Z,30.00
2018-08-12T11:20:38.774Z,29.80
2018-08-12T11:22:43.414Z,29.60
2018-08-12T11:24:47.946Z,29.50
2018-08-12T11:26:52.441Z,29.60
2018-08-12T11:28:57.000Z,29.30
2018-08-12T11:31:01.548Z,29.30
2018-08-12T11:33:06.238Z,29.50
2018-08-12T11:35:13.987Z,29.30
2018-08-12T11:37:18.819Z,29.10
2018-08-12T11:39:23.390Z,29.20
2018-08-12T11:41:27.978Z,29.30
2018-08-12T11:43:32.524Z,28.80
2018-08-12T11:45:37.035Z,28.70
2018-08-12T11:47:42.371Z,28.50
2018-08-12T11:49:46.940Z,28.40
2018-08-12T11:51:51.517Z,28.30
2018-08-12T11:53:56.001Z,28.10
2018-08-12T11:56:00.758Z,28.20
2018-08-12T11:58:05.514Z,28.10
2018-08-12T12:00:18.516Z,28.00
2018-08-12T12:02:23.153Z,28.10
2018-08-12T12:04:27.979Z,28.20
2018-08-12T12:06:35.209Z,27.70
2018-08-12T12:08:39.714Z,27.30
2018-08-12T12:10:44.927Z,27.40
2018-08-12T12:12:50.427Z,27.20
2018-08-12T12:14:55.025Z,26.70
2018-08-12T12:16:59.549Z,26.90
2018-08-12T12:19:04.666Z,26.90
2018-08-12T12:21:09.290Z,27.00
2018-08-12T12:23:14.031Z,27.00
2018-08-12T12:25:20.016Z,26.90
2018-08-12T12:27:25.302Z,26.80
2018-08-12T12:29:29.905Z,26.80
2018-08-12T12:31:34.398Z,26.80
2018-08-12T12:33:39.794Z,26.50
2018-08-12T12:35:44.362Z,25.90
2018-08-12T12:37:48.938Z,25.90
2018-08-12T12:39:53.814Z,25.90
2018-08-12T12:41:58.387Z,25.70
2018-08-12T12:44:03.609Z,25.60
2018-08-12T12:46:08.722Z,25.50
2018-08-12T12:48:13.198Z,25.50
2018-08-12T12:50:22.597Z,25.30
2018-08-12T12:52:26.991Z,25.70
2018-08-12T12:54:31.525Z,25.00
2018-08-12T12:56:36.037Z,25.10
2018-08-12T12:58:40.527Z,25.10
2018-08-12T13:00:44.998Z,24.60
2018-08-12T13:02:50.229Z,24.40
2018-08-12T13:04:55.183Z,24.50
2018-08-12T13:06:59.679Z,24.20
2018-08-12T13:09:05.682Z,24.20
2018-08-12T13:11:10.197Z,24.60
2018-08-12T13:13:14.658Z,24.40
2018-08-12T13:15:19.386Z,24.50
2018-08-12T13:17:23.887Z,24.40
2018-08-12T13:19:28.331Z,24.20
2018-08-12T13:21:33.233Z,24.00
2018-08-12T13:23:37.739Z,23.90
2018-08-12T13:25:42.289Z,23.80
2018-08-12T13:27:47.067Z,24.30
2018-08-12T13:29:51.546Z,23.90
2018-08-12T13:31:56.147Z,23.80
2018-08-12T13:34:00.575Z,23.80
2018-08-12T13:36:05.644Z,23.90
2018-08-12T13:38:10.118Z,23.90
2018-08-12T13:40:16.590Z,23.40
2018-08-12T13:42:21.616Z,23.40
2018-08-12T13:44:26.504Z,23.20
2018-08-12T13:46:31.260Z,23.20
2018-08-12T13:48:35.827Z,23.10
2018-08-12T13:50:41.361Z,23.00
2018-08-12T13:52:46.523Z,22.90
2018-08-12T13:54:51.014Z,23.00
2018-08-12T13:56:55.814Z,23.80
2018-08-12T13:59:00.332Z,23.70
2018-08-12T14:01:05.239Z,23.60
2018-08-12T14:03:09.759Z,22.80
2018-08-12T14:05:16.781Z,23.30
2018-08-12T14:07:21.699Z,23.30
2018-08-12T14:09:26.537Z,23.20
2018-08-12T14:11:31.035Z,23.10
2018-08-12T14:13:35.511Z,23.00
2018-08-12T14:15:39.998Z,23.00
2018-08-12T14:17:45.598Z,22.70
2018-08-12T14:19:50.079Z,22.20
2018-08-12T14:21:54.544Z,22.50
2018-08-12T14:23:58.995Z,22.30
2018-08-12T14:26:03.627Z,21.90
2018-08-12T14:28:08.267Z,21.70
2018-08-12T14:30:17.471Z,21.60
2018-08-12T14:32:21.990Z,21.50
2018-08-12T14:34:26.521Z,21.20
2018-08-12T14:36:31.298Z,21.60
2018-08-12T14:38:35.826Z,21.40
2018-08-12T14:40:40.575Z,21.10
2018-08-12T14:42:45.615Z,21.00
2018-08-12T14:44:50.130Z,20.90
2018-08-12T14:46:54.934Z,21.00
2018-08-12T14:49:00.413Z,21.20
2018-08-12T14:51:04.983Z,21.40
2018-08-12T14:53:11.954Z,21.30
2018-08-12T14:55:18.920Z,21.30
2018-08-12T14:57:26.141Z,21.60
2018-08-12T14:59:30.930Z,21.40
2018-08-12T15:01:35.517Z,21.50
2018-08-12T15:03:40.171Z,20.90
2018-08-12T15:05:44.754Z,20.70
2018-08-12T15:07:49.372Z,20.60
2018-08-12T15:09:53.869Z,20.30
2018-08-12T15:11:58.379Z,20.50
2018-08-12T15:14:03.096Z,20.30
2018-08-12T15:16:08.297Z,20.40
2018-08-12T15:18:12.846Z,20.20
2018-08-12T15:20:17.822Z,20.10
2018-08-12T15:22:22.739Z,20.30
2018-08-12T15:24:27.366Z,20.40
2018-08-12T15:26:31.837Z,20.30
2018-08-12T15:28:36.354Z,20.40
2018-08-12T15:30:40.949Z,21.10
2018-08-12T15:32:45.754Z,20.50
2018-08-12T15:34:50.527Z,20.60
2018-08-12T15:36:55.206Z,20.50
2018-08-12T15:38:59.763Z,20.40
2018-08-12T15:41:04.255Z,20.50
2018-08-12T15:43:08.774Z,20.10
2018-08-12T15:45:15.190Z,20.50
2018-08-12T15:47:19.686Z,20.20
2018-08-12T15:49:24.323Z,20.50
2018-08-12T15:51:28.815Z,20.40
2018-08-12T15:53:33.470Z,20.60
2018-08-12T15:55:37.979Z,20.70
2018-08-12T15:57:42.470Z,20.90
2018-08-12T15:59:46.910Z,20.70
2018-08-12T16:01:51.422Z,20.90
2018-08-12T16:03:56.681Z,21.00
2018-08-12T16:06:01.162Z,21.00
2018-08-12T16:08:05.749Z,21.20
2018-08-12T16:10:16.696Z,21.20
2018-08-12T16:12:21.202Z,20.90
2018-08-12T16:14:26.061Z,20.90
2018-08-12T16:16:30.604Z,20.90
2018-08-12T16:18:35.223Z,20.90
2018-08-12T16:20:39.694Z,21.60
2018-08-12T16:22:44.248Z,22.00
2018-08-12T16:24:49.315Z,21.70
2018-08-12T16:26:54.047Z,21.80
2018-08-12T16:28:58.666Z,21.60
2018-08-12T16:31:03.560Z,21.80
2018-08-12T16:33:08.241Z,21.90
2018-08-12T16:35:14.482Z,22.00
2018-08-12T16:37:18.991Z,21.90
2018-08-12T16:39:23.848Z,22.20
2018-08-12T16:41:28.402Z,22.30
2018-08-12T16:43:32.934Z,22.90
2018-08-12T16:45:37.911Z,22.80
2018-08-12T16:47:42.802Z,22.70
2018-08-12T16:49:47.483Z,22.80
2018-08-12T16:51:51.966Z,22.80
2018-08-12T16:53:56.534Z,22.80
2018-08-12T16:56:01.095Z,23.10
2018-08-12T16:58:06.010Z,23.20
2018-08-12T17:00:14.749Z,22.90
2018-08-12T17:02:19.275Z,23.80
2018-08-12T17:04:23.935Z,23.90
2018-08-12T17:06:28.246Z,23.90
2018-08-12T17:08:32.734Z,23.50
2018-08-12T17:10:37.420Z,23.90
2018-08-12T17:12:45.146Z,24.00
2018-08-12T17:14:51.282Z,24.50
2018-08-12T17:16:55.771Z,24.80
2018-08-12T17:19:00.581Z,24.50
2018-08-12T17:21:06.092Z,25.20
2018-08-12T17:23:10.590Z,25.60
2018-08-12T17:25:15.227Z,25.90
2018-08-12T17:27:19.838Z,26.00
2018-08-12T17:29:24.994Z,26.60
2018-08-12T17:31:29.978Z,26.40
2018-08-12T17:33:34.563Z,26.70
2018-08-12T17:35:39.144Z,26.70
2018-08-12T17:37:44.873Z,27.00
2018-08-12T17:39:50.169Z,27.40
2018-08-12T17:41:54.794Z,27.80
2018-08-12T17:43:59.802Z,27.90
2018-08-12T17:46:06.623Z,28.00
2018-08-12T17:48:14.210Z,28.50
2018-08-12T17:50:19.974Z,28.50
2018-08-12T17:52:25.840Z,28.70
2018-08-12T17:54:33.062Z,29.10
2018-08-12T17:56:39.821Z,29.40
2018-08-12T17:58:46.065Z,29.40
2018-08-12T18:00:51.889Z,29.40
2018-08-12T18:02:58.068Z,29.40
2018-08-12T18:05:02.924Z,29.80
2018-08-12T18:07:10.354Z,29.80
2018-08-12T18:09:16.718Z,30.00
2018-08-12T18:11:22.257Z,30.20
2018-08-12T18:13:28.303Z,30.40
2018-08-12T18:15:34.125Z,30.60
2018-08-12T18:17:41.309Z,31.00
2018-08-12T18:19:48.114Z,31.10
2018-08-12T18:21:52.759Z,31.10
2018-08-12T18:23:57.885Z,31.20
2018-08-12T18:26:03.356Z,31.30
2018-08-12T18:28:12.454Z,31.40
2018-08-12T18:30:17.917Z,31.90
2018-08-12T18:32:23.583Z,32.20
2018-08-12T18:34:30.073Z,32.30
2018-08-12T18:36:35.624Z,32.60
2018-08-12T18:38:41.134Z,32.70
2018-08-12T18:40:46.510Z,33.00
2018-08-12T18:42:53.232Z,33.30
2018-08-12T18:44:58.686Z,33.50
2018-08-12T18:47:04.998Z,33.80
2018-08-12T18:49:11.166Z,34.00
2018-08-12T18:51:17.377Z,34.20
2018-08-12T18:53:23.477Z,34.40
2018-08-12T18:55:29.070Z,34.60
2018-08-12T18:57:34.831Z,34.90
2018-08-12T18:59:41.284Z,35.00
2018-08-12T19:01:47.070Z,35.30
2018-08-12T19:03:52.798Z,35.40
2018-08-12T19:05:59.090Z,35.60
2018-08-12T19:08:06.487Z,35.70
2018-08-12T19:10:12.187Z,35.70
2018-08-12T19:12:18.041Z,35.80
2018-08-12T19:14:23.582Z,36.00
2018-08-12T19:16:30.714Z,36.00
2018-08-12T19:18:36.363Z,36.10
2018-08-12T19:20:40.979Z,36.30
2018-08-12T19:22:45.429Z,36.20
2018-08-12T19:24:49.845Z,36.20
2018-08-12T19:26:54.494Z,36.20
2018-08-12T19:28:59.496Z,36.10
2018-08-12T19:31:07.021Z,36.10
2018-08-12T19:33:11.806Z,36.30
2018-08-12T19:35:16.267Z,36.40
2018-08-12T19:37:20.986Z,36.60
2018-08-12T19:39:25.564Z,36.80
2018-08-12T19:41:30.532Z,36.90
2018-08-12T19:43:34.919Z,37.10
2018-08-12T19:45:40.356Z,37.40
2018-08-12T19:47:45.410Z,37.60
2018-08-12T19:49:50.590Z,37.60
2018-08-12T19:51:55.003Z,37.40
2018-08-12T19:54:00.175Z,37.60
2018-08-12T19:56:05.117Z,38.40
2018-08-12T19:58:09.622Z,37.80
2018-08-12T20:00:15.309Z,38.10
2018-08-12T20:02:19.670Z,38.30
2018-08-12T20:04:24.122Z,40.00
2018-08-12T20:06:28.577Z,39.50
2018-08-12T20:08:33.142Z,39.30
2018-08-12T20:10:37.607Z,39.20
2018-08-12T20:12:42.076Z,39.10
2018-08-12T20:14:46.610Z,39.00
2018-08-12T20:16:51.055Z,39.00
2018-08-12T20:18:55.614Z,39.00
2018-08-12T20:21:00.230Z,39.10
2018-08-12T20:23:04.697Z,39.20
2018-08-12T20:25:09.584Z,39.50
2018-08-12T20:27:14.520Z,39.40
2018-08-12T20:29:19.055Z,39.40
2018-08-12T20:31:23.595Z,39.40
2018-08-12T20:33:28.138Z,39.60
2018-08-12T20:35:32.791Z,39.90
2018-08-12T20:37:37.290Z,40.00
2018-08-12T20:39:41.856Z,40.90
2018-08-12T20:41:46.302Z,40.30
2018-08-12T20:43:51.874Z,40.40
2018-08-12T20:45:56.308Z,40.50
2018-08-12T20:48:01.138Z,40.50
2018-08-12T20:50:07.488Z,40.90
2018-08-12T20:52:12.048Z,40.80
2018-08-12T20:54:16.504Z,41.00
2018-08-12T20:56:21.285Z,41.10
2018-08-12T20:58:25.759Z,41.10
2018-08-12T21:00:32.994Z,41.20
2018-08-12T21:02:37.939Z,41.20
2018-08-12T21:04:42.378Z,41.20
2018-08-12T21:06:47.255Z,41.20
2018-08-12T21:08:51.699Z,42.10
2018-08-12T21:10:56.162Z,41.50
2018-08-12T21:13:00.608Z,41.50
2018-08-12T21:15:05.582Z,41.80
2018-08-12T21:17:10.348Z,41.90
2018-08-12T21:19:14.876Z,42.00
2018-08-12T21:21:19.377Z,42.20
2018-08-12T21:23:23.890Z,43.00
2018-08-12T21:25:28.353Z,42.50
2018-08-12T21:27:32.902Z,42.70
2018-08-12T21:29:37.371Z,42.80
2018-08-12T21:31:41.998Z,42.70
2018-08-12T21:33:46.537Z,42.70
2018-08-12T21:35:51.015Z,42.90
2018-08-12T21:37:56.185Z,43.00
2018-08-12T21:40:00.743Z,43.10
2018-08-12T21:42:05.861Z,43.10
2018-08-12T21:44:10.318Z,43.30
2018-08-12T21:46:15.333Z,43.40
2018-08-12T21:48:19.758Z,43.40
2018-08-12T21:50:24.616Z,43.50
2018-08-12T21:52:29.580Z,43.70
2018-08-12T21:54:35.227Z,43.70
2018-08-12T21:56:39.679Z,43.80
2018-08-12T21:58:44.802Z,43.80
2018-08-12T22:00:49.296Z,43.80
2018-08-12T22:02:53.790Z,44.40
2018-08-12T22:04:58.478Z,44.10
2018-08-12T22:07:03.006Z,44.40
2018-08-12T22:09:10.263Z,44.40
2018-08-12T22:11:14.789Z,44.40
2018-08-12T22:13:19.414Z,44.60
2018-08-12T22:15:24.307Z,44.60
2018-08-12T22:17:29.520Z,44.70
2018-08-12T22:19:34.430Z,44.70
2018-08-12T22:21:39.403Z,44.80
2018-08-12T22:23:43.857Z,44.90
2018-08-12T22:25:48.458Z,45.00
2018-08-12T22:27:52.989Z,45.20
2018-08-12T22:29:57.771Z,45.20
2018-08-12T22:32:02.239Z,45.30
2018-08-12T22:34:06.829Z,45.30
2018-08-12T22:36:11.288Z,45.30
2018-08-12T22:38:15.782Z,46.00
2018-08-12T22:40:20.230Z,45.50
2018-08-12T22:42:24.765Z,45.60
2018-08-12T22:44:34.199Z,45.70
2018-08-12T22:46:39.148Z,45.90
2018-08-12T22:48:46.006Z,46.10
2018-08-12T22:50:51.608Z,46.00
2018-08-12T22:53:00.174Z,46.00
2018-08-12T22:55:08.901Z,46.00
2018-08-12T22:57:13.419Z,46.30
2018-08-12T22:59:17.912Z,46.50
2018-08-12T23:01:22.457Z,46.60
2018-08-12T23:03:26.918Z,47.30
2018-08-12T23:05:31.463Z,46.80
2018-08-12T23:07:35.943Z,47.60
2018-08-12T23:09:40.557Z,47.00
2018-08-12T23:11:45.033Z,47.00
2018-08-12T23:13:49.590Z,47.10
2018-08-12T23:16:21.245Z,47.00
2018-08-12T23:18:25.671Z,47.20
2018-08-12T23:20:32.542Z,47.10
2018-08-12T23:22:37.030Z,47.20
2018-08-12T23:24:41.587Z,47.20
2018-08-12T23:26:46.111Z,47.40
2018-08-12T23:28:50.594Z,48.10
2018-08-12T23:30:55.602Z,47.40
2018-08-12T23:33:00.035Z,47.50
2018-08-12T23:35:04.511Z,48.30
2018-08-12T23:37:08.979Z,47.60
2018-08-12T23:39:13.578Z,47.60
2018-08-12T23:41:18.027Z,47.60
2018-08-12T23:43:22.542Z,47.80
2018-08-12T23:45:26.992Z,47.80
2018-08-12T23:47:31.409Z,48.60
2018-08-12T23:49:35.884Z,48.20
2018-08-12T23:51:40.922Z,48.20
2018-08-12T23:53:45.673Z,48.30
2018-08-12T23:55:50.175Z,48.50
2018-08-12T23:57:54.590Z,48.60
2018-08-12T23:59:59.034Z,48.50
